Time;durP1;ratioP1;P1;durP2;ratioP2;P2;SDS_P1;SDS_P2;PMS_P1;PMS_P2;Temp;Humidity;BMP_temperature;BMP_pressure;BME280_temperature;BME280_humidity;BME280_pressure;Samples;Min_cycle;Max_cycle;Signal;HPM_P1;HPM_P2
2023/12/31 00:09:17;;;;;;;;;;;9.30;99.90;;;;;;6768033;88;20053;-81
2023/12/31 00:19:18;;;;;;;;;;;9.20;99.90;;;;;;6748808;88;20149;-83
2023/12/31 00:29:19;;;;;;;;;;;9.10;99.90;;;;;;6749272;88;20135;-83
2023/12/31 00:39:20;;;;;;;;;;;9.00;99.90;;;;;;6753463;88;20175;-83
2023/12/31 00:49:21;;;;;;;;;;;8.80;99.90;;;;;;6764449;88;20558;-83
2023/12/31 00:59:22;;;;;;;;;;;8.90;99.90;;;;;;6729014;88;20908;-81
2023/12/31 01:09:22;;;;;;;;;;;8.70;99.90;;;;;;6728127;88;20064;-82
2023/12/31 01:19:22;;;;;;;;;;;8.50;99.90;;;;;;6730619;88;20080;-83
2023/12/31 01:29:23;;;;;;;;;;;8.50;99.90;;;;;;6755881;88;20082;-82
2023/12/31 01:39:24;;;;;;;;;;;8.60;99.90;;;;;;6709585;88;20725;-81
2023/12/31 01:49:26;;;;;;;;;;;8.70;99.90;;;;;;6752735;88;20019;-80
2023/12/31 01:59:27;;;;;;;;;;;8.70;99.90;;;;;;6716442;88;20048;-82
2023/12/31 02:09:28;;;;;;;;;;;8.80;99.90;;;;;;6717057;88;20108;-86
2023/12/31 02:19:28;;;;;;;;;;;8.70;99.90;;;;;;6682349;89;20025;-79
2023/12/31 02:29:29;;;;;;;;;;;8.70;99.90;;;;;;6698680;88;20044;-80
2023/12/31 02:39:29;;;;;;;;;;;8.60;99.90;;;;;;6691901;88;20080;-80
2023/12/31 02:49:30;;;;;;;;;;;8.60;99.90;;;;;;6711590;88;20028;-80
2023/12/31 03:09:33;;;;;;;;;;;8.40;99.90;;;;;;6763091;87;20073;-81
2023/12/31 03:19:36;;;;;;;;;;;8.40;99.90;;;;;;6768773;87;20077;-80
2023/12/31 03:29:37;;;;;;;;;;;8.40;99.90;;;;;;6769113;87;20026;-80
2023/12/31 03:39:37;;;;;;;;;;;8.40;99.90;;;;;;6732123;88;20030;-81
2023/12/31 03:49:38;;;;;;;;;;;8.40;99.90;;;;;;6731910;88;20172;-80
2023/12/31 03:59:38;;;;;;;;;;;8.50;99.90;;;;;;6731724;88;20043;-80
2023/12/31 04:09:42;;;;;;;;;;;8.60;99.90;;;;;;6760323;87;20053;-80
2023/12/31 04:19:42;;;;;;;;;;;8.70;99.90;;;;;;6750970;88;20067;-81
2023/12/31 04:29:42;;;;;;;;;;;8.70;99.90;;;;;;6751336;88;20568;-81
2023/12/31 04:39:43;;;;;;;;;;;8.70;99.90;;;;;;6767884;87;20030;-82
2023/12/31 04:49:43;;;;;;;;;;;8.60;99.90;;;;;;6730986;88;20328;-81
2023/12/31 04:59:44;;;;;;;;;;;8.60;99.90;;;;;;6731632;88;20150;-81
2023/12/31 05:09:44;;;;;;;;;;;8.50;99.90;;;;;;6731032;88;20070;-80
2023/12/31 05:19:45;;;;;;;;;;;8.60;99.90;;;;;;6759698;87;20157;-80
2023/12/31 05:29:45;;;;;;;;;;;8.60;99.90;;;;;;6767237;87;20034;-81
2023/12/31 05:39:46;;;;;;;;;;;8.60;99.90;;;;;;6767275;87;20030;-81
2023/12/31 05:49:46;;;;;;;;;;;8.70;99.90;;;;;;6767027;87;20039;-82
2023/12/31 05:59:47;;;;;;;;;;;8.80;99.90;;;;;;6766959;87;20033;-81
2023/12/31 06:09:47;;;;;;;;;;;9.00;99.90;;;;;;6766823;87;20047;-81
2023/12/31 06:19:47;;;;;;;;;;;9.00;99.90;;;;;;6767703;87;20049;-82
2023/12/31 06:29:50;;;;;;;;;;;9.10;99.90;;;;;;6769766;87;20017;-82
2023/12/31 06:39:51;;;;;;;;;;;9.10;99.90;;;;;;6769710;87;20117;-82
2023/12/31 06:49:52;;;;;;;;;;;9.00;99.90;;;;;;6769142;87;20768;-81
2023/12/31 06:59:53;;;;;;;;;;;9.10;99.90;;;;;;6768109;87;20086;-81
2023/12/31 07:09:53;;;;;;;;;;;9.00;99.90;;;;;;6768514;88;20038;-83
2023/12/31 07:19:54;;;;;;;;;;;9.10;99.90;;;;;;6768905;87;20045;-81
2023/12/31 07:29:54;;;;;;;;;;;9.00;99.90;;;;;;6768453;87;20117;-81
2023/12/31 07:39:55;;;;;;;;;;;9.00;99.90;;;;;;6768606;87;20121;-82
2023/12/31 07:49:56;;;;;;;;;;;9.00;99.90;;;;;;6768556;87;20051;-85
2023/12/31 07:59:56;;;;;;;;;;;9.00;99.90;;;;;;6768829;87;20042;-84
2023/12/31 08:09:57;;;;;;;;;;;9.10;99.90;;;;;;6768561;87;20083;-84
2023/12/31 08:19:57;;;;;;;;;;;9.20;99.90;;;;;;6768430;87;20030;-84
2023/12/31 08:29:58;;;;;;;;;;;9.20;99.90;;;;;;6750961;87;20031;-84
2023/12/31 08:39:58;;;;;;;;;;;9.20;99.90;;;;;;6750780;88;20023;-84
2023/12/31 08:49:59;;;;;;;;;;;9.50;99.90;;;;;;6750712;88;20745;-84
2023/12/31 09:10:41;;;;;;;;;;;9.80;99.90;;;;;;6672956;88;20060;-78
2023/12/31 09:20:41;;;;;;;;;;;9.90;99.90;;;;;;6662480;88;20543;-78
2023/12/31 09:30:42;;;;;;;;;;;10.00;99.90;;;;;;6672095;88;20082;-81
2023/12/31 09:40:43;;;;;;;;;;;10.10;99.90;;;;;;6675286;88;20053;-79
2023/12/31 09:50:43;;;;;;;;;;;10.20;99.90;;;;;;6674903;88;20049;-79
2023/12/31 10:00:44;;;;;;;;;;;10.30;99.90;;;;;;6676305;88;20073;-80
2023/12/31 10:10:45;;;;;;;;;;;10.30;99.90;;;;;;6671339;88;20083;-78
2023/12/31 10:20:45;;;;;;;;;;;10.40;99.90;;;;;;6654066;89;20074;-77
2023/12/31 10:30:47;;;;;;;;;;;10.50;99.90;;;;;;6655363;89;20493;-79
2023/12/31 10:40:48;;;;;;;;;;;10.90;99.90;;;;;;6656100;88;20642;-79
2023/12/31 10:50:49;;;;;;;;;;;10.80;99.90;;;;;;6657986;89;20101;-79
2023/12/31 11:00:50;;;;;;;;;;;10.70;99.90;;;;;;6653876;88;20057;-80
2023/12/31 11:10:50;;;;;;;;;;;10.80;99.90;;;;;;6660975;89;20075;-80
2023/12/31 11:20:57;;;;;;;;;;;10.60;99.90;;;;;;6657259;88;20045;-78
2023/12/31 11:30:58;;;;;;;;;;;10.60;99.90;;;;;;6663974;88;20132;-81
2023/12/31 11:40:58;;;;;;;;;;;10.60;99.90;;;;;;6659017;88;20148;-80
2023/12/31 11:51:01;;;;;;;;;;;10.60;99.90;;;;;;6667422;89;20092;-80
2023/12/31 12:01:03;;;;;;;;;;;10.50;99.90;;;;;;6665518;88;20808;-78
2023/12/31 12:11:03;;;;;;;;;;;10.40;99.90;;;;;;6675980;88;20065;-81
2023/12/31 12:21:04;;;;;;;;;;;10.50;99.90;;;;;;6697947;88;20192;-80
2023/12/31 12:31:06;;;;;;;;;;;10.50;99.90;;;;;;6671957;88;20107;-77
2023/12/31 12:41:08;;;;;;;;;;;10.50;99.90;;;;;;6662549;88;20086;-78
2023/12/31 12:51:08;;;;;;;;;;;10.40;99.90;;;;;;6670615;88;20520;-78
2023/12/31 13:01:09;;;;;;;;;;;10.40;99.90;;;;;;6666070;88;20100;-78
2023/12/31 13:11:09;;;;;;;;;;;10.60;99.90;;;;;;6656992;88;20099;-77
2023/12/31 13:21:10;;;;;;;;;;;10.60;99.90;;;;;;6659151;88;21051;-78
2023/12/31 13:31:10;;;;;;;;;;;10.70;99.90;;;;;;6660690;88;20078;-78
2023/12/31 13:41:11;;;;;;;;;;;10.90;99.90;;;;;;6662283;88;20507;-78
2023/12/31 13:51:11;;;;;;;;;;;11.20;99.90;;;;;;6661281;89;20223;-78
2023/12/31 14:01:12;;;;;;;;;;;12.00;99.90;;;;;;6664602;89;20074;-78
2023/12/31 14:11:12;;;;;;;;;;;11.70;99.90;;;;;;6665759;88;20133;-78
2023/12/31 14:21:13;;;;;;;;;;;11.90;99.90;;;;;;6679061;88;20505;-78
2023/12/31 14:31:13;;;;;;;;;;;11.20;99.90;;;;;;6677308;88;20115;-77
2023/12/31 14:41:14;;;;;;;;;;;11.30;99.90;;;;;;6666597;88;20080;-78
2023/12/31 14:51:14;;;;;;;;;;;11.20;99.90;;;;;;6663744;88;20077;-77
2023/12/31 15:01:15;;;;;;;;;;;10.70;99.90;;;;;;6662073;88;20686;-77
2023/12/31 15:11:16;;;;;;;;;;;10.20;99.90;;;;;;6666175;88;20074;-77
2023/12/31 15:21:16;;;;;;;;;;;10.00;99.90;;;;;;6671426;88;20192;-76
2023/12/31 15:31:17;;;;;;;;;;;9.70;99.90;;;;;;6665611;88;20144;-77
2023/12/31 15:41:18;;;;;;;;;;;9.60;99.90;;;;;;6666958;88;20102;-77
2023/12/31 15:51:19;;;;;;;;;;;9.50;99.90;;;;;;6664149;88;20096;-77
2023/12/31 16:01:20;;;;;;;;;;;9.50;99.90;;;;;;6667987;88;20076;-77
2023/12/31 16:11:20;;;;;;;;;;;9.50;99.90;;;;;;6668560;88;20097;-77
2023/12/31 16:21:21;;;;;;;;;;;9.50;99.90;;;;;;6672673;88;20088;-77
2023/12/31 16:31:21;;;;;;;;;;;9.60;99.90;;;;;;6667824;88;20090;-77
2023/12/31 16:41:22;;;;;;;;;;;9.30;99.90;;;;;;6669924;88;20484;-76
2023/12/31 16:51:25;;;;;;;;;;;9.20;99.90;;;;;;6665750;88;20083;-76
2023/12/31 17:01:26;;;;;;;;;;;9.40;99.90;;;;;;6665854;88;20070;-78
2023/12/31 17:11:28;;;;;;;;;;;9.40;99.90;;;;;;6665927;88;20058;-76
2023/12/31 17:21:29;;;;;;;;;;;9.40;99.90;;;;;;6669333;88;20512;-77
2023/12/31 17:31:29;;;;;;;;;;;9.40;99.90;;;;;;6657843;88;20077;-77
2023/12/31 17:41:30;;;;;;;;;;;9.20;99.90;;;;;;6667600;89;20086;-76
2023/12/31 17:51:30;;;;;;;;;;;9.50;99.90;;;;;;6673727;88;20049;-76
2023/12/31 18:01:31;;;;;;;;;;;9.40;99.90;;;;;;6668263;88;20053;-75
2023/12/31 18:11:31;;;;;;;;;;;9.30;99.90;;;;;;6677016;88;20126;-77
2023/12/31 18:21:32;;;;;;;;;;;9.30;99.90;;;;;;6667304;88;20166;-77
2023/12/31 18:31:32;;;;;;;;;;;9.00;99.90;;;;;;6661339;88;20060;-77
2023/12/31 18:41:33;;;;;;;;;;;8.50;99.90;;;;;;6661214;88;20585;-77
2023/12/31 18:51:37;;;;;;;;;;;8.40;99.90;;;;;;6662198;88;20080;-76
2023/12/31 19:01:37;;;;;;;;;;;8.40;99.90;;;;;;6651755;88;20080;-78
2023/12/31 19:11:38;;;;;;;;;;;8.40;99.90;;;;;;6656801;89;20194;-77
2023/12/31 19:21:38;;;;;;;;;;;8.40;99.90;;;;;;6651041;89;20126;-77
2023/12/31 19:31:39;;;;;;;;;;;8.30;99.90;;;;;;6647637;89;20207;-76
2023/12/31 19:41:39;;;;;;;;;;;8.30;99.90;;;;;;6647871;89;20060;-76
2023/12/31 19:51:43;;;;;;;;;;;8.30;99.90;;;;;;6665160;88;20634;-78
2023/12/31 20:01:43;;;;;;;;;;;8.30;99.90;;;;;;6667689;88;20073;-76
2023/12/31 20:11:44;;;;;;;;;;;8.40;99.90;;;;;;6676038;88;20060;-76
2023/12/31 20:21:44;;;;;;;;;;;8.50;99.90;;;;;;6665285;88;20077;-75
2023/12/31 20:31:45;;;;;;;;;;;8.60;99.90;;;;;;6662837;88;20073;-77
2023/12/31 20:41:46;;;;;;;;;;;8.60;99.90;;;;;;6663795;88;20079;-76
2023/12/31 20:51:46;;;;;;;;;;;8.70;99.90;;;;;;6677042;88;20304;-77
2023/12/31 21:01:47;;;;;;;;;;;8.60;99.90;;;;;;6663604;88;20053;-77
2023/12/31 21:11:47;;;;;;;;;;;8.50;99.90;;;;;;6663355;89;20680;-77
2023/12/31 21:21:48;;;;;;;;;;;8.50;99.90;;;;;;6664606;89;20139;-78
2023/12/31 21:31:48;;;;;;;;;;;8.50;99.90;;;;;;6666146;89;20111;-78
2023/12/31 21:41:49;;;;;;;;;;;8.40;99.90;;;;;;6664067;89;20198;-77
2023/12/31 21:51:49;;;;;;;;;;;8.40;99.90;;;;;;6663792;89;20106;-76
2023/12/31 22:01:50;;;;;;;;;;;8.30;99.90;;;;;;6665373;89;20235;-78
2023/12/31 22:11:50;;;;;;;;;;;8.40;99.90;;;;;;6665736;88;20156;-78
2023/12/31 22:21:51;;;;;;;;;;;8.20;99.90;;;;;;6665812;89;20694;-77
2023/12/31 22:31:51;;;;;;;;;;;8.30;99.90;;;;;;6666077;89;20121;-79
2023/12/31 22:41:52;;;;;;;;;;;8.40;99.90;;;;;;6666660;89;20189;-77
2023/12/31 22:51:52;;;;;;;;;;;8.20;99.90;;;;;;6671064;89;20494;-77
2023/12/31 23:01:53;;;;;;;;;;;8.10;99.90;;;;;;6669163;89;20071;-77
2023/12/31 23:11:53;;;;;;;;;;;8.20;99.90;;;;;;6664443;89;20201;-76
2023/12/31 23:21:53;;;;;;;;;;;8.30;99.90;;;;;;6664105;89;20503;-78
2023/12/31 23:31:54;;;;;;;;;;;8.30;99.90;;;;;;6663913;89;20079;-76
2023/12/31 23:41:54;;;;;;;;;;;8.20;99.90;;;;;;6664488;89;20063;-77
2023/12/31 23:51:55;;;;;;;;;;;8.20;99.90;;;;;;6664734;89;20096;-76
